sensor_id;sensor_type;location;lat;lon;timestamp;temperature;humidity
46590;DHT22;32313;48.722;9.362;2023-02-23T00:01:24;5.90;99.90
46590;DHT22;32313;48.722;9.362;2023-02-23T00:03:53;5.90;99.90
46590;DHT22;32313;48.722;9.362;2023-02-23T00:06:21;5.90;99.90
46590;DHT22;32313;48.722;9.362;2023-02-23T00:08:46;5.90;99.90
46590;DHT22;32313;48.722;9.362;2023-02-23T00:11:13;5.90;99.90
46590;DHT22;32313;48.722;9.362;2023-02-23T00:13:41;5.90;99.90
46590;DHT22;32313;48.722;9.362;2023-02-23T00:16:12;5.90;99.90
46590;DHT22;32313;48.722;9.362;2023-02-23T00:18:45;5.90;99.90
46590;DHT22;32313;48.722;9.362;2023-02-23T00:21:29;5.90;99.90
46590;DHT22;32313;48.722;9.362;2023-02-23T00:24:02;5.90;99.90
46590;DHT22;32313;48.722;9.362;2023-02-23T00:26:29;5.90;99.90
46590;DHT22;32313;48.722;9.362;2023-02-23T00:28:58;5.90;99.90
46590;DHT22;32313;48.722;9.362;2023-02-23T00:31:27;6.00;99.90
46590;DHT22;32313;48.722;9.362;2023-02-23T00:33:58;6.00;99.90
46590;DHT22;32313;48.722;9.362;2023-02-23T00:36:27;6.00;99.90
46590;DHT22;32313;48.722;9.362;2023-02-23T00:38:56;6.00;99.90
46590;DHT22;32313;48.722;9.362;2023-02-23T00:41:22;6.00;99.90
46590;DHT22;32313;48.722;9.362;2023-02-23T00:43:58;6.00;99.90
46590;DHT22;32313;48.722;9.362;2023-02-23T00:46:28;6.00;99.90
46590;DHT22;32313;48.722;9.362;2023-02-23T00:48:56;6.00;99.90
46590;DHT22;32313;48.722;9.362;2023-02-23T00:51:24;6.00;99.90
46590;DHT22;32313;48.722;9.362;2023-02-23T00:53:59;6.00;99.90
46590;DHT22;32313;48.722;9.362;2023-02-23T00:56:26;6.00;99.90
46590;DHT22;32313;48.722;9.362;2023-02-23T00:58:52;5.90;99.90
46590;DHT22;32313;48.722;9.362;2023-02-23T01:01:18;5.90;99.90
46590;DHT22;32313;48.722;9.362;2023-02-23T01:03:44;5.90;99.90
46590;DHT22;32313;48.722;9.362;2023-02-23T01:06:12;5.90;99.90
46590;DHT22;32313;48.722;9.362;2023-02-23T01:08:43;5.90;99.90
46590;DHT22;32313;48.722;9.362;2023-02-23T01:11:12;6.00;99.90
46590;DHT22;32313;48.722;9.362;2023-02-23T01:13:40;6.00;99.90
46590;DHT22;32313;48.722;9.362;2023-02-23T01:16:17;6.00;99.90
46590;DHT22;32313;48.722;9.362;2023-02-23T01:18:44;6.00;99.90
46590;DHT22;32313;48.722;9.362;2023-02-23T01:21:22;6.00;99.90
46590;DHT22;32313;48.722;9.362;2023-02-23T01:23:49;6.00;99.90
46590;DHT22;32313;48.722;9.362;2023-02-23T01:28:41;6.00;99.90
46590;DHT22;32313;48.722;9.362;2023-02-23T01:31:08;6.00;99.90
46590;DHT22;32313;48.722;9.362;2023-02-23T01:33:35;6.00;99.90
46590;DHT22;32313;48.722;9.362;2023-02-23T01:36:01;5.90;99.90
46590;DHT22;32313;48.722;9.362;2023-02-23T01:38:26;5.90;99.90
46590;DHT22;32313;48.722;9.362;2023-02-23T01:40:52;5.90;99.90
46590;DHT22;32313;48.722;9.362;2023-02-23T01:43:22;5.90;99.90
46590;DHT22;32313;48.722;9.362;2023-02-23T01:45:56;5.90;99.90
46590;DHT22;32313;48.722;9.362;2023-02-23T01:48:31;5.90;99.90
46590;DHT22;32313;48.722;9.362;2023-02-23T01:53:31;5.90;99.90
46590;DHT22;32313;48.722;9.362;2023-02-23T01:56:04;5.80;99.90
46590;DHT22;32313;48.722;9.362;2023-02-23T01:58:31;5.80;99.90
46590;DHT22;32313;48.722;9.362;2023-02-23T02:00:58;5.80;99.90
46590;DHT22;32313;48.722;9.362;2023-02-23T02:03:54;5.80;99.90
46590;DHT22;32313;48.722;9.362;2023-02-23T02:06:23;5.70;99.90
46590;DHT22;32313;48.722;9.362;2023-02-23T02:08:53;5.70;99.90
46590;DHT22;32313;48.722;9.362;2023-02-23T02:11:21;5.70;99.90
46590;DHT22;32313;48.722;9.362;2023-02-23T02:14:02;5.70;99.90
46590;DHT22;32313;48.722;9.362;2023-02-23T02:36:21;5.70;99.90
46590;DHT22;32313;48.722;9.362;2023-02-23T02:42:04;5.70;99.90
46590;DHT22;32313;48.722;9.362;2023-02-23T02:44:59;5.70;99.90
46590;DHT22;32313;48.722;9.362;2023-02-23T02:47:35;5.70;99.90
46590;DHT22;32313;48.722;9.362;2023-02-23T02:53:07;5.60;99.90
46590;DHT22;32313;48.722;9.362;2023-02-23T02:55:35;5.60;99.90
46590;DHT22;32313;48.722;9.362;2023-02-23T02:58:05;5.60;99.90
46590;DHT22;32313;48.722;9.362;2023-02-23T03:00:45;5.60;99.90
46590;DHT22;32313;48.722;9.362;2023-02-23T03:03:40;5.60;99.90
46590;DHT22;32313;48.722;9.362;2023-02-23T03:07:01;5.60;99.90
46590;DHT22;32313;48.722;9.362;2023-02-23T03:13:24;5.70;99.90
46590;DHT22;32313;48.722;9.362;2023-02-23T03:16:20;5.80;99.90
46590;DHT22;32313;48.722;9.362;2023-02-23T03:25:15;5.80;99.90
46590;DHT22;32313;48.722;9.362;2023-02-23T03:28:29;5.80;99.90
46590;DHT22;32313;48.722;9.362;2023-02-23T03:31:39;5.80;99.90
46590;DHT22;32313;48.722;9.362;2023-02-23T03:34:52;5.80;99.90
46590;DHT22;32313;48.722;9.362;2023-02-23T03:37:44;5.80;99.90
46590;DHT22;32313;48.722;9.362;2023-02-23T03:40:34;5.80;99.90
46590;DHT22;32313;48.722;9.362;2023-02-23T03:43:33;5.80;99.90
46590;DHT22;32313;48.722;9.362;2023-02-23T03:46:18;5.80;99.90
46590;DHT22;32313;48.722;9.362;2023-02-23T03:49:07;5.80;99.90
46590;DHT22;32313;48.722;9.362;2023-02-23T03:51:57;5.80;99.90
46590;DHT22;32313;48.722;9.362;2023-02-23T03:54:48;5.80;99.90
46590;DHT22;32313;48.722;9.362;2023-02-23T03:57:37;5.80;99.90
46590;DHT22;32313;48.722;9.362;2023-02-23T04:00:28;5.90;99.90
46590;DHT22;32313;48.722;9.362;2023-02-23T04:03:16;5.90;99.90
46590;DHT22;32313;48.722;9.362;2023-02-23T04:06:04;5.90;99.90
46590;DHT22;32313;48.722;9.362;2023-02-23T04:08:50;5.90;99.90
46590;DHT22;32313;48.722;9.362;2023-02-23T04:11:57;5.90;99.90
46590;DHT22;32313;48.722;9.362;2023-02-23T04:15:14;5.90;99.90
46590;DHT22;32313;48.722;9.362;2023-02-23T04:17:42;5.90;99.90
46590;DHT22;32313;48.722;9.362;2023-02-23T04:20:09;5.90;99.90
46590;DHT22;32313;48.722;9.362;2023-02-23T04:22:37;5.90;99.90
46590;DHT22;32313;48.722;9.362;2023-02-23T04:25:03;5.90;99.90
46590;DHT22;32313;48.722;9.362;2023-02-23T04:27:30;5.90;99.90
46590;DHT22;32313;48.722;9.362;2023-02-23T04:29:56;5.90;99.90
46590;DHT22;32313;48.722;9.362;2023-02-23T04:32:22;6.00;99.90
46590;DHT22;32313;48.722;9.362;2023-02-23T04:34:48;6.00;99.90
46590;DHT22;32313;48.722;9.362;2023-02-23T04:37:14;6.00;99.90
46590;DHT22;32313;48.722;9.362;2023-02-23T04:39:40;6.00;99.90
46590;DHT22;32313;48.722;9.362;2023-02-23T04:42:13;6.00;99.90
46590;DHT22;32313;48.722;9.362;2023-02-23T04:44:38;6.00;99.90
46590;DHT22;32313;48.722;9.362;2023-02-23T04:47:04;6.00;99.90
46590;DHT22;32313;48.722;9.362;2023-02-23T04:49:30;6.00;99.90
46590;DHT22;32313;48.722;9.362;2023-02-23T04:51:56;6.00;99.90
46590;DHT22;32313;48.722;9.362;2023-02-23T04:54:21;6.00;99.90
46590;DHT22;32313;48.722;9.362;2023-02-23T04:56:47;6.00;99.90
46590;DHT22;32313;48.722;9.362;2023-02-23T04:59:12;6.00;99.90
46590;DHT22;32313;48.722;9.362;2023-02-23T05:01:38;6.00;99.90
46590;DHT22;32313;48.722;9.362;2023-02-23T05:04:04;6.00;99.90
46590;DHT22;32313;48.722;9.362;2023-02-23T05:06:30;6.00;99.90
46590;DHT22;32313;48.722;9.362;2023-02-23T05:08:55;6.00;99.90
46590;DHT22;32313;48.722;9.362;2023-02-23T05:11:21;6.00;99.90
46590;DHT22;32313;48.722;9.362;2023-02-23T05:13:47;6.00;99.90
46590;DHT22;32313;48.722;9.362;2023-02-23T05:16:13;6.00;99.90
46590;DHT22;32313;48.722;9.362;2023-02-23T05:18:38;6.00;99.90
46590;DHT22;32313;48.722;9.362;2023-02-23T05:21:06;6.00;99.90
46590;DHT22;32313;48.722;9.362;2023-02-23T05:23:33;6.00;99.90
46590;DHT22;32313;48.722;9.362;2023-02-23T05:26:05;5.90;99.90
46590;DHT22;32313;48.722;9.362;2023-02-23T05:28:32;5.90;99.90
46590;DHT22;32313;48.722;9.362;2023-02-23T05:30:58;5.90;99.90
46590;DHT22;32313;48.722;9.362;2023-02-23T05:33:23;5.90;99.90
46590;DHT22;32313;48.722;9.362;2023-02-23T05:35:49;5.90;99.90
46590;DHT22;32313;48.722;9.362;2023-02-23T05:38:15;5.90;99.90
46590;DHT22;32313;48.722;9.362;2023-02-23T05:40:40;5.90;99.90
46590;DHT22;32313;48.722;9.362;2023-02-23T05:43:06;5.90;99.90
46590;DHT22;32313;48.722;9.362;2023-02-23T05:45:32;5.90;99.90
46590;DHT22;32313;48.722;9.362;2023-02-23T05:47:58;5.90;99.90
46590;DHT22;32313;48.722;9.362;2023-02-23T05:50:24;5.90;99.90
46590;DHT22;32313;48.722;9.362;2023-02-23T05:52:51;5.80;99.90
46590;DHT22;32313;48.722;9.362;2023-02-23T05:55:17;5.80;99.90
46590;DHT22;32313;48.722;9.362;2023-02-23T05:57:42;5.80;99.90
46590;DHT22;32313;48.722;9.362;2023-02-23T06:00:10;5.80;99.90
46590;DHT22;32313;48.722;9.362;2023-02-23T06:02:37;5.80;99.90
46590;DHT22;32313;48.722;9.362;2023-02-23T06:05:03;5.80;99.90
46590;DHT22;32313;48.722;9.362;2023-02-23T06:07:30;5.80;99.90
46590;DHT22;32313;48.722;9.362;2023-02-23T06:09:56;5.80;99.90
46590;DHT22;32313;48.722;9.362;2023-02-23T06:12:22;5.80;99.90
46590;DHT22;32313;48.722;9.362;2023-02-23T06:14:48;5.80;99.90
46590;DHT22;32313;48.722;9.362;2023-02-23T06:17:16;5.80;99.90
46590;DHT22;32313;48.722;9.362;2023-02-23T06:19:42;5.80;99.90
46590;DHT22;32313;48.722;9.362;2023-02-23T06:22:08;5.80;99.90
46590;DHT22;32313;48.722;9.362;2023-02-23T06:24:33;5.80;99.90
46590;DHT22;32313;48.722;9.362;2023-02-23T06:26:59;5.80;99.90
46590;DHT22;32313;48.722;9.362;2023-02-23T06:29:25;5.80;99.90
46590;DHT22;32313;48.722;9.362;2023-02-23T06:31:51;5.80;99.90
46590;DHT22;32313;48.722;9.362;2023-02-23T06:34:17;5.80;99.90
46590;DHT22;32313;48.722;9.362;2023-02-23T06:36:44;5.90;99.90
46590;DHT22;32313;48.722;9.362;2023-02-23T06:39:10;5.90;99.90
46590;DHT22;32313;48.722;9.362;2023-02-23T06:41:36;5.90;99.90
46590;DHT22;32313;48.722;9.362;2023-02-23T06:44:02;5.90;99.90
46590;DHT22;32313;48.722;9.362;2023-02-23T06:46:28;5.90;99.90
46590;DHT22;32313;48.722;9.362;2023-02-23T06:48:54;5.90;99.90
46590;DHT22;32313;48.722;9.362;2023-02-23T06:51:20;5.90;99.90
46590;DHT22;32313;48.722;9.362;2023-02-23T06:53:46;5.90;99.90
46590;DHT22;32313;48.722;9.362;2023-02-23T06:56:12;5.90;99.90
46590;DHT22;32313;48.722;9.362;2023-02-23T06:58:39;5.90;99.90
46590;DHT22;32313;48.722;9.362;2023-02-23T07:01:05;5.90;99.90
46590;DHT22;32313;48.722;9.362;2023-02-23T07:03:31;6.00;99.90
46590;DHT22;32313;48.722;9.362;2023-02-23T07:05:57;6.00;99.90
46590;DHT22;32313;48.722;9.362;2023-02-23T07:08:22;6.00;99.90
46590;DHT22;32313;48.722;9.362;2023-02-23T07:10:48;6.00;99.90
46590;DHT22;32313;48.722;9.362;2023-02-23T07:13:14;6.10;99.90
46590;DHT22;32313;48.722;9.362;2023-02-23T07:15:40;6.10;99.90
46590;DHT22;32313;48.722;9.362;2023-02-23T07:18:06;6.10;99.90
46590;DHT22;32313;48.722;9.362;2023-02-23T07:20:32;6.10;99.90
46590;DHT22;32313;48.722;9.362;2023-02-23T07:22:59;6.10;99.90
46590;DHT22;32313;48.722;9.362;2023-02-23T07:25:28;6.20;99.90
46590;DHT22;32313;48.722;9.362;2023-02-23T07:27:54;6.20;99.90
46590;DHT22;32313;48.722;9.362;2023-02-23T07:30:20;6.20;99.90
46590;DHT22;32313;48.722;9.362;2023-02-23T07:32:52;6.20;99.90
46590;DHT22;32313;48.722;9.362;2023-02-23T07:35:19;6.30;99.90
46590;DHT22;32313;48.722;9.362;2023-02-23T07:37:44;6.30;99.90
46590;DHT22;32313;48.722;9.362;2023-02-23T07:40:10;6.30;99.90
46590;DHT22;32313;48.722;9.362;2023-02-23T07:42:36;6.30;99.90
46590;DHT22;32313;48.722;9.362;2023-02-23T07:45:03;6.40;99.90
46590;DHT22;32313;48.722;9.362;2023-02-23T07:47:29;6.40;99.90
46590;DHT22;32313;48.722;9.362;2023-02-23T07:49:59;6.40;99.90
46590;DHT22;32313;48.722;9.362;2023-02-23T07:52:27;6.40;99.90
46590;DHT22;32313;48.722;9.362;2023-02-23T07:54:53;6.50;99.90
46590;DHT22;32313;48.722;9.362;2023-02-23T07:57:19;6.60;99.90
46590;DHT22;32313;48.722;9.362;2023-02-23T07:59:46;6.70;99.90
46590;DHT22;32313;48.722;9.362;2023-02-23T08:02:12;6.80;99.90
46590;DHT22;32313;48.722;9.362;2023-02-23T08:04:38;6.90;99.90
46590;DHT22;32313;48.722;9.362;2023-02-23T08:07:05;7.10;99.90
46590;DHT22;32313;48.722;9.362;2023-02-23T08:09:31;7.10;99.90
46590;DHT22;32313;48.722;9.362;2023-02-23T08:12:02;7.20;99.90
46590;DHT22;32313;48.722;9.362;2023-02-23T08:14:28;7.30;99.90
46590;DHT22;32313;48.722;9.362;2023-02-23T08:16:54;7.40;99.90
46590;DHT22;32313;48.722;9.362;2023-02-23T08:19:19;7.50;99.90
46590;DHT22;32313;48.722;9.362;2023-02-23T08:21:50;7.60;99.90
46590;DHT22;32313;48.722;9.362;2023-02-23T08:24:16;7.70;99.90
46590;DHT22;32313;48.722;9.362;2023-02-23T08:26:41;7.70;99.90
46590;DHT22;32313;48.722;9.362;2023-02-23T08:29:07;7.80;99.90
46590;DHT22;32313;48.722;9.362;2023-02-23T08:31:33;7.80;99.90
46590;DHT22;32313;48.722;9.362;2023-02-23T08:33:59;7.90;99.90
46590;DHT22;32313;48.722;9.362;2023-02-23T08:36:26;8.00;99.90
46590;DHT22;32313;48.722;9.362;2023-02-23T08:38:52;8.10;99.90
46590;DHT22;32313;48.722;9.362;2023-02-23T08:41:19;8.20;99.90
46590;DHT22;32313;48.722;9.362;2023-02-23T08:43:45;8.30;99.90
46590;DHT22;32313;48.722;9.362;2023-02-23T08:46:11;8.30;99.90
46590;DHT22;32313;48.722;9.362;2023-02-23T08:48:37;8.40;99.90
46590;DHT22;32313;48.722;9.362;2023-02-23T08:51:05;8.40;99.90
46590;DHT22;32313;48.722;9.362;2023-02-23T08:53:31;8.50;99.90
46590;DHT22;32313;48.722;9.362;2023-02-23T08:55:59;8.60;99.90
46590;DHT22;32313;48.722;9.362;2023-02-23T08:58:26;8.70;99.90
46590;DHT22;32313;48.722;9.362;2023-02-23T09:00:52;8.60;99.90
46590;DHT22;32313;48.722;9.362;2023-02-23T09:03:18;8.60;99.90
46590;DHT22;32313;48.722;9.362;2023-02-23T09:05:45;8.70;99.90
46590;DHT22;32313;48.722;9.362;2023-02-23T09:08:12;8.70;99.90
46590;DHT22;32313;48.722;9.362;2023-02-23T09:10:38;8.80;99.90
46590;DHT22;32313;48.722;9.362;2023-02-23T09:13:04;8.80;99.90
46590;DHT22;32313;48.722;9.362;2023-02-23T09:15:30;8.90;99.90
46590;DHT22;32313;48.722;9.362;2023-02-23T09:18:00;8.90;99.90
46590;DHT22;32313;48.722;9.362;2023-02-23T09:20:26;9.00;99.90
46590;DHT22;32313;48.722;9.362;2023-02-23T09:22:52;9.20;99.90
46590;DHT22;32313;48.722;9.362;2023-02-23T09:25:18;9.30;99.90
46590;DHT22;32313;48.722;9.362;2023-02-23T09:27:51;9.40;99.90
46590;DHT22;32313;48.722;9.362;2023-02-23T09:30:18;9.50;99.90
46590;DHT22;32313;48.722;9.362;2023-02-23T09:32:46;9.60;99.90
46590;DHT22;32313;48.722;9.362;2023-02-23T09:35:12;9.70;99.90
46590;DHT22;32313;48.722;9.362;2023-02-23T09:37:45;9.70;99.90
46590;DHT22;32313;48.722;9.362;2023-02-23T09:40:17;9.80;99.90
46590;DHT22;32313;48.722;9.362;2023-02-23T09:45:38;9.80;99.90
46590;DHT22;32313;48.722;9.362;2023-02-23T09:48:21;10.00;99.90
46590;DHT22;32313;48.722;9.362;2023-02-23T09:50:57;10.10;99.90
46590;DHT22;32313;48.722;9.362;2023-02-23T09:53:48;10.10;99.90
46590;DHT22;32313;48.722;9.362;2023-02-23T09:59:01;10.20;99.90
46590;DHT22;32313;48.722;9.362;2023-02-23T10:04:22;10.40;99.90
46590;DHT22;32313;48.722;9.362;2023-02-23T10:15:26;11.70;99.90
46590;DHT22;32313;48.722;9.362;2023-02-23T10:18:29;12.10;99.90
46590;DHT22;32313;48.722;9.362;2023-02-23T10:21:05;12.50;99.90
46590;DHT22;32313;48.722;9.362;2023-02-23T10:23:42;12.70;99.90
46590;DHT22;32313;48.722;9.362;2023-02-23T10:26:18;13.00;99.90
46590;DHT22;32313;48.722;9.362;2023-02-23T10:28:46;13.30;99.90
46590;DHT22;32313;48.722;9.362;2023-02-23T10:31:42;13.50;99.90
46590;DHT22;32313;48.722;9.362;2023-02-23T10:34:16;13.60;99.90
46590;DHT22;32313;48.722;9.362;2023-02-23T10:36:43;13.80;99.90
46590;DHT22;32313;48.722;9.362;2023-02-23T10:39:11;14.10;99.90
46590;DHT22;32313;48.722;9.362;2023-02-23T10:41:38;14.30;99.90
46590;DHT22;32313;48.722;9.362;2023-02-23T10:44:05;14.30;99.90
46590;DHT22;32313;48.722;9.362;2023-02-23T10:46:39;14.20;99.90
46590;DHT22;32313;48.722;9.362;2023-02-23T10:49:06;14.20;99.90
46590;DHT22;32313;48.722;9.362;2023-02-23T10:51:36;14.00;99.90
46590;DHT22;32313;48.722;9.362;2023-02-23T10:54:34;14.00;99.90
46590;DHT22;32313;48.722;9.362;2023-02-23T10:57:01;13.80;99.90
46590;DHT22;32313;48.722;9.362;2023-02-23T10:59:27;13.90;99.90
46590;DHT22;32313;48.722;9.362;2023-02-23T11:01:53;14.00;99.90
46590;DHT22;32313;48.722;9.362;2023-02-23T11:06:44;14.10;99.90
46590;DHT22;32313;48.722;9.362;2023-02-23T11:09:28;14.10;99.90
46590;DHT22;32313;48.722;9.362;2023-02-23T11:12:15;14.30;99.90
46590;DHT22;32313;48.722;9.362;2023-02-23T11:14:41;14.20;99.90
46590;DHT22;32313;48.722;9.362;2023-02-23T11:19:48;14.40;99.90
46590;DHT22;32313;48.722;9.362;2023-02-23T11:22:19;14.40;99.90
46590;DHT22;32313;48.722;9.362;2023-02-23T11:24:48;14.50;99.90
46590;DHT22;32313;48.722;9.362;2023-02-23T11:27:23;14.50;99.90
46590;DHT22;32313;48.722;9.362;2023-02-23T11:29:50;14.60;99.90
46590;DHT22;32313;48.722;9.362;2023-02-23T11:32:27;14.70;99.90
46590;DHT22;32313;48.722;9.362;2023-02-23T11:35:34;14.90;99.90
46590;DHT22;32313;48.722;9.362;2023-02-23T11:37:59;14.80;99.90
46590;DHT22;32313;48.722;9.362;2023-02-23T11:40:40;14.70;99.90
46590;DHT22;32313;48.722;9.362;2023-02-23T11:45:58;14.70;99.90
46590;DHT22;32313;48.722;9.362;2023-02-23T11:48:29;14.80;99.90
46590;DHT22;32313;48.722;9.362;2023-02-23T11:50:56;14.90;99.90
46590;DHT22;32313;48.722;9.362;2023-02-23T11:53:38;15.00;99.90
46590;DHT22;32313;48.722;9.362;2023-02-23T11:56:07;15.00;99.90
46590;DHT22;32313;48.722;9.362;2023-02-23T11:58:43;15.00;99.90
46590;DHT22;32313;48.722;9.362;2023-02-23T12:01:15;15.00;99.90
46590;DHT22;32313;48.722;9.362;2023-02-23T12:03:54;15.10;99.90
46590;DHT22;32313;48.722;9.362;2023-02-23T12:06:33;15.10;99.90
46590;DHT22;32313;48.722;9.362;2023-02-23T12:09:25;15.20;99.90
46590;DHT22;32313;48.722;9.362;2023-02-23T12:12:03;15.40;99.90
46590;DHT22;32313;48.722;9.362;2023-02-23T12:17:07;15.70;99.90
46590;DHT22;32313;48.722;9.362;2023-02-23T12:19:40;15.70;99.90
46590;DHT22;32313;48.722;9.362;2023-02-23T12:22:31;15.80;99.90
46590;DHT22;32313;48.722;9.362;2023-02-23T12:25:03;15.90;99.90
46590;DHT22;32313;48.722;9.362;2023-02-23T12:30:22;16.20;99.90
46590;DHT22;32313;48.722;9.362;2023-02-23T12:33:20;16.70;99.90
46590;DHT22;32313;48.722;9.362;2023-02-23T12:41:12;17.10;99.90
46590;DHT22;32313;48.722;9.362;2023-02-23T12:43:39;16.80;99.90
46590;DHT22;32313;48.722;9.362;2023-02-23T12:46:33;16.60;99.90
46590;DHT22;32313;48.722;9.362;2023-02-23T12:49:15;16.40;99.90
46590;DHT22;32313;48.722;9.362;2023-02-23T12:54:15;16.50;99.90
46590;DHT22;32313;48.722;9.362;2023-02-23T13:05:23;16.50;99.90
46590;DHT22;32313;48.722;9.362;2023-02-23T13:13:28;15.70;99.90
46590;DHT22;32313;48.722;9.362;2023-02-23T13:23:43;15.20;99.90
46590;DHT22;32313;48.722;9.362;2023-02-23T13:31:26;14.60;99.90
46590;DHT22;32313;48.722;9.362;2023-02-23T13:33:55;14.50;99.90
46590;DHT22;32313;48.722;9.362;2023-02-23T13:36:23;14.30;99.90
46590;DHT22;32313;48.722;9.362;2023-02-23T13:39:05;14.30;99.90
46590;DHT22;32313;48.722;9.362;2023-02-23T13:41:47;14.30;99.90
46590;DHT22;32313;48.722;9.362;2023-02-23T13:52:43;14.00;99.90
46590;DHT22;32313;48.722;9.362;2023-02-23T14:00:28;13.90;99.90
46590;DHT22;32313;48.722;9.362;2023-02-23T14:02:55;14.00;99.90
46590;DHT22;32313;48.722;9.362;2023-02-23T14:05:23;13.90;99.90
46590;DHT22;32313;48.722;9.362;2023-02-23T14:07:58;14.00;99.90
46590;DHT22;32313;48.722;9.362;2023-02-23T14:10:38;14.00;99.90
46590;DHT22;32313;48.722;9.362;2023-02-23T14:20:54;14.00;99.90
46590;DHT22;32313;48.722;9.362;2023-02-23T14:25:51;14.00;99.90
46590;DHT22;32313;48.722;9.362;2023-02-23T14:28:32;14.00;99.90
46590;DHT22;32313;48.722;9.362;2023-02-23T14:31:05;14.10;99.90
46590;DHT22;32313;48.722;9.362;2023-02-23T14:43:59;14.20;99.90
46590;DHT22;32313;48.722;9.362;2023-02-23T14:46:31;14.10;99.90
46590;DHT22;32313;48.722;9.362;2023-02-23T14:49:05;14.10;99.90
46590;DHT22;32313;48.722;9.362;2023-02-23T14:54:02;14.00;99.90
46590;DHT22;32313;48.722;9.362;2023-02-23T14:56:45;14.00;99.90
46590;DHT22;32313;48.722;9.362;2023-02-23T14:59:20;14.00;99.90
46590;DHT22;32313;48.722;9.362;2023-02-23T15:01:48;13.90;99.90
46590;DHT22;32313;48.722;9.362;2023-02-23T15:04:24;13.70;99.90
46590;DHT22;32313;48.722;9.362;2023-02-23T15:06:54;13.60;99.90
46590;DHT22;32313;48.722;9.362;2023-02-23T15:09:39;13.60;99.90
46590;DHT22;32313;48.722;9.362;2023-02-23T15:12:18;13.40;99.90
46590;DHT22;32313;48.722;9.362;2023-02-23T15:14:45;13.30;99.90
46590;DHT22;32313;48.722;9.362;2023-02-23T15:17:16;13.40;99.90
46590;DHT22;32313;48.722;9.362;2023-02-23T15:19:42;13.40;99.90
46590;DHT22;32313;48.722;9.362;2023-02-23T15:22:19;13.40;99.90
46590;DHT22;32313;48.722;9.362;2023-02-23T15:24:48;13.40;99.90
46590;DHT22;32313;48.722;9.362;2023-02-23T15:27:22;13.50;99.90
46590;DHT22;32313;48.722;9.362;2023-02-23T15:29:51;13.50;99.90
46590;DHT22;32313;48.722;9.362;2023-02-23T15:32:19;13.50;99.90
46590;DHT22;32313;48.722;9.362;2023-02-23T15:34:46;13.60;99.90
46590;DHT22;32313;48.722;9.362;2023-02-23T15:37:27;13.60;99.90
46590;DHT22;32313;48.722;9.362;2023-02-23T15:40:02;13.60;99.90
46590;DHT22;32313;48.722;9.362;2023-02-23T15:42:40;13.50;99.90
46590;DHT22;32313;48.722;9.362;2023-02-23T15:47:53;13.10;99.90
46590;DHT22;32313;48.722;9.362;2023-02-23T15:50:33;12.90;99.90
46590;DHT22;32313;48.722;9.362;2023-02-23T15:56:10;12.50;99.90
46590;DHT22;32313;48.722;9.362;2023-02-23T15:58:40;12.40;99.90
46590;DHT22;32313;48.722;9.362;2023-02-23T16:01:19;12.30;99.90
46590;DHT22;32313;48.722;9.362;2023-02-23T16:04:01;12.20;99.90
46590;DHT22;32313;48.722;9.362;2023-02-23T16:06:31;12.10;99.90
46590;DHT22;32313;48.722;9.362;2023-02-23T16:09:14;11.90;99.90
46590;DHT22;32313;48.722;9.362;2023-02-23T16:11:46;11.90;99.90
46590;DHT22;32313;48.722;9.362;2023-02-23T16:14:16;11.80;99.90
46590;DHT22;32313;48.722;9.362;2023-02-23T16:16:45;11.80;99.90
46590;DHT22;32313;48.722;9.362;2023-02-23T16:19:16;11.80;99.90
46590;DHT22;32313;48.722;9.362;2023-02-23T16:21:47;11.80;99.90
46590;DHT22;32313;48.722;9.362;2023-02-23T16:24:18;11.70;99.90
46590;DHT22;32313;48.722;9.362;2023-02-23T16:26:58;11.70;99.90
46590;DHT22;32313;48.722;9.362;2023-02-23T16:29:38;11.60;99.90
46590;DHT22;32313;48.722;9.362;2023-02-23T16:32:19;11.50;99.90
46590;DHT22;32313;48.722;9.362;2023-02-23T16:34:53;11.40;99.90
46590;DHT22;32313;48.722;9.362;2023-02-23T16:37:22;11.40;99.90
46590;DHT22;32313;48.722;9.362;2023-02-23T16:39:50;11.30;99.90
46590;DHT22;32313;48.722;9.362;2023-02-23T16:42:24;11.20;99.90
46590;DHT22;32313;48.722;9.362;2023-02-23T16:44:51;11.10;99.90
46590;DHT22;32313;48.722;9.362;2023-02-23T16:47:32;11.00;99.90
46590;DHT22;32313;48.722;9.362;2023-02-23T16:50:04;10.90;99.90
46590;DHT22;32313;48.722;9.362;2023-02-23T16:52:37;10.80;99.90
46590;DHT22;32313;48.722;9.362;2023-02-23T16:55:03;10.80;99.90
46590;DHT22;32313;48.722;9.362;2023-02-23T16:57:39;10.70;99.90
46590;DHT22;32313;48.722;9.362;2023-02-23T17:00:09;10.60;99.90
46590;DHT22;32313;48.722;9.362;2023-02-23T17:02:43;10.60;99.90
46590;DHT22;32313;48.722;9.362;2023-02-23T17:05:13;10.50;99.90
46590;DHT22;32313;48.722;9.362;2023-02-23T17:07:40;10.50;99.90
46590;DHT22;32313;48.722;9.362;2023-02-23T17:10:07;10.60;99.90
46590;DHT22;32313;48.722;9.362;2023-02-23T17:12:33;10.50;99.90
46590;DHT22;32313;48.722;9.362;2023-02-23T17:14:59;10.50;99.90
46590;DHT22;32313;48.722;9.362;2023-02-23T17:17:24;10.50;99.90
46590;DHT22;32313;48.722;9.362;2023-02-23T17:19:50;10.40;99.90
46590;DHT22;32313;48.722;9.362;2023-02-23T17:22:16;10.40;99.90
46590;DHT22;32313;48.722;9.362;2023-02-23T17:24:42;10.30;99.90
46590;DHT22;32313;48.722;9.362;2023-02-23T17:27:08;10.30;99.90
46590;DHT22;32313;48.722;9.362;2023-02-23T17:29:34;10.30;99.90
46590;DHT22;32313;48.722;9.362;2023-02-23T17:32:00;10.30;99.90
46590;DHT22;32313;48.722;9.362;2023-02-23T17:34:27;10.30;99.90
46590;DHT22;32313;48.722;9.362;2023-02-23T17:36:53;10.30;99.90
46590;DHT22;32313;48.722;9.362;2023-02-23T17:39:19;10.40;99.90
46590;DHT22;32313;48.722;9.362;2023-02-23T17:41:45;10.40;99.90
46590;DHT22;32313;48.722;9.362;2023-02-23T17:44:10;10.40;99.90
46590;DHT22;32313;48.722;9.362;2023-02-23T17:46:36;10.40;99.90
46590;DHT22;32313;48.722;9.362;2023-02-23T17:49:03;10.40;99.90
46590;DHT22;32313;48.722;9.362;2023-02-23T17:51:29;10.40;99.90
46590;DHT22;32313;48.722;9.362;2023-02-23T17:53:54;10.40;99.90
46590;DHT22;32313;48.722;9.362;2023-02-23T17:56:20;10.40;99.90
46590;DHT22;32313;48.722;9.362;2023-02-23T17:58:48;10.40;99.90
46590;DHT22;32313;48.722;9.362;2023-02-23T18:01:15;10.40;99.90
46590;DHT22;32313;48.722;9.362;2023-02-23T18:03:42;10.40;99.90
46590;DHT22;32313;48.722;9.362;2023-02-23T18:06:10;10.40;99.90
46590;DHT22;32313;48.722;9.362;2023-02-23T18:08:37;10.40;99.90
46590;DHT22;32313;48.722;9.362;2023-02-23T18:11:03;10.30;99.90
46590;DHT22;32313;48.722;9.362;2023-02-23T18:13:30;10.30;99.90
46590;DHT22;32313;48.722;9.362;2023-02-23T18:16:06;10.20;99.90
46590;DHT22;32313;48.722;9.362;2023-02-23T18:18:35;10.20;99.90
46590;DHT22;32313;48.722;9.362;2023-02-23T18:21:01;10.20;99.90
46590;DHT22;32313;48.722;9.362;2023-02-23T18:23:29;10.20;99.90
46590;DHT22;32313;48.722;9.362;2023-02-23T18:26:26;10.20;99.90
46590;DHT22;32313;48.722;9.362;2023-02-23T18:28:52;10.20;99.90
46590;DHT22;32313;48.722;9.362;2023-02-23T18:31:23;10.20;99.90
46590;DHT22;32313;48.722;9.362;2023-02-23T18:33:50;10.20;99.90
46590;DHT22;32313;48.722;9.362;2023-02-23T18:36:22;10.20;99.90